Smokey Hill High School (Aurora), Colorado
Current Conditions -  °F | °C
As of 5:53 PM on Friday 28 Nov 2014 (Local Time) from KAPA Reporting Station
Broken Clouds Broken Clouds  
Wind Chill: 57°   Ceiling: 25000
Heat Index: 57°   Visibility: 10mi
Dew Point: 10°   Wind: 6mph
Humidity: 15%   Direction: 230°SW
Pressure: 29.85"   Gusts: NA
Location:  39.6262°N, 104.8012°W
Report Text: KAPA 290053Z 23005KT 10SM SCT140 BKN250 14/M12 A2985 RMK AO2 SLP087 T01391122
Loading
Personal Weather Stations






























Interactive Weather Map New forecast layout! Learn more

10-Day Weather Forecast

Advertisements
Track Severe Weather on mobile